Latest Weather Observations for Trangie

IDN60801

Issued at 10:34 pm EDT Wednesday 28 January 2015 (issued every 30 minutes, with the page automatically refreshed every 10 minutes)

About weather observations | Map of weather stations | Latest weather observations for NSW | Other Formats
Station Details ID: 051049 Name: TRANGIE RESEARCH STATION AWS Lat: -31.99 Lon: 147.95 Height: 215.0 m
Data from the previous 72 hours. | See also: Recent months at Trangie
Date/Time
EDT
Temp
°C
App
Temp
°C
Dew
Point
Rel
Hum
%
Delta-T
°C
Wind Press
QNH
hPa
Press
MSL
hPa
Rain
since 9 am
mm
Dir
 
Spd
km/h
Gust
km/h
Spd
kts
Gust
kts
28/10:30pm 17.9 17.5 14.2 79 2.1 NNE 9 13 5 7 1012.9 1011.7 0.0
28/10:00pm 18.4 18.1 14.3 77 2.4 NNE 9 13 5 7 1012.5 1011.3 0.0
28/09:30pm 18.8 18.6 14.7 77 2.4 NE 9 13 5 7 1012.3 1011.1 0.0
28/09:00pm 19.4 18.7 14.2 72 3.0 NE 11 17 6 9 1012.1 1010.9 0.0
28/08:30pm 20.0 18.4 13.9 68 3.5 NE 15 24 8 13 1011.9 1010.7 0.0
28/08:00pm 20.9 18.4 13.6 63 4.2 ENE 19 32 10 17 1012.0 1010.8 0.0
28/07:30pm 21.6 17.6 13.0 58 5.0 ENE 26 41 14 22 1011.6 1010.4 0.0
28/07:00pm 22.2 19.6 13.8 59 4.9 ENE 20 39 11 21 1011.3 1010.1 0.0
28/06:30pm 21.9 18.4 13.3 58 5.0 ENE 24 41 13 22 1010.9 1009.7 0.0
28/06:00pm 21.3 18.0 14.0 63 4.3 E 24 39 13 21 1010.8 1009.6 0.0
28/05:30pm 23.7 20.3 13.6 53 5.9 E 24 43 13 23 1010.5 1009.3 0.0
28/05:00pm 24.3 20.6 13.8 52 6.2 ENE 26 43 14 23 1010.3 1009.1 0.0
28/04:30pm 24.6 21.8 14.4 53 6.1 E 22 33 12 18 1010.3 1009.1 0.0
28/04:00pm 25.0 22.4 13.9 50 6.6 ESE 20 35 11 19 1010.3 1009.1 0.0
28/03:30pm 25.6 22.1 13.5 47 7.2 E 24 43 13 23 1010.3 1009.1 0.0
28/03:00pm 25.3 22.3 13.8 49 6.8 E 22 41 12 22 1010.1 1008.8 0.0
28/02:30pm 25.2 22.3 14.0 49 6.7 ESE 22 43 12 23 1010.3 1009.1 0.0
28/02:00pm 25.4 22.6 14.2 50 6.7 E 22 37 12 20 1010.2 1008.9 0.0
28/01:30pm 25.4 23.0 14.5 51 6.6 E 20 32 11 17 1010.3 1009.1 0.0
28/01:00pm 25.6 23.4 15.0 52 6.4 E 20 33 11 18 1010.4 1009.2 0.0
28/12:30pm 24.7 22.5 14.5 53 6.1 E 19 30 10 16 1010.6 1009.4 0.0
28/12:00pm 24.5 22.3 14.3 53 6.1 E 19 30 10 16 1010.8 1009.6 0.0
28/11:30am 24.2 22.0 14.9 56 5.6 ESE 20 35 11 19 1011.1 1009.9 0.0
28/11:00am 24.3 22.2 15.2 57 5.5 E 20 35 11 19 1011.3 1010.1 0.0
28/10:30am 23.3 21.1 14.8 59 5.1 E 20 35 11 19 1011.4 1010.2 0.0
28/10:00am 22.8 20.7 15.1 62 4.6 E 20 33 11 18 1011.3 1010.1 0.0
28/09:30am 21.2 19.5 14.6 66 3.9 E 17 30 9 16 1011.1 1009.9 0.0
28/09:00am 20.4 18.9 14.3 68 3.6 E 15 24 8 13 1011.1 1009.9 17.0
28/08:30am 19.8 17.6 14.4 71 3.2 E 19 26 10 14 1010.8 1009.6 17.0
28/08:00am 19.3 18.7 14.6 74 2.8 ESE 11 20 6 11 1010.5 1009.3 17.0
28/07:30am 18.0 17.2 14.1 78 2.3 ESE 11 17 6 9 1010.2 1008.9 17.0
28/07:00am 16.7 16.4 14.5 87 1.3 ESE 9 15 5 8 1009.7 1008.4 17.0
28/06:30am 16.1 16.1 14.3 89 1.0 ESE 7 11 4 6 1009.5 1008.2 17.0
28/06:00am 16.4 16.5 14.4 88 1.2 ESE 7 13 4 7 1009.2 1007.9 17.0
28/05:30am 16.4 16.2 14.6 89 1.0 ESE 9 13 5 7 1009.0 1007.7 17.0
28/05:00am 15.8 16.0 14.3 91 0.9 SE 6 11 3 6 1008.9 1007.6 17.0
28/04:30am 16.0 16.1 14.5 91 0.9 SSE 7 11 4 6 1008.7 1007.4 17.0
28/04:00am 16.9 16.7 14.7 87 1.3 ESE 9 17 5 9 1008.5 1007.2 17.0
28/03:30am 17.0 16.1 14.8 87 1.3 ESE 13 19 7 10 1008.3 1007.1 17.0
28/03:00am 17.3 16.8 14.9 86 1.4 ESE 11 17 6 9 1008.6 1007.3 17.0
28/02:30am 17.3 16.8 14.9 86 1.4 E 11 19 6 10 1008.7 1007.4 17.0
28/02:00am 17.5 17.1 15.1 86 1.4 E 11 15 6 8 1009.1 1007.8 17.0
28/01:30am 17.6 17.1 15.0 85 1.5 E 11 15 6 8 1009.3 1008.0 17.0
28/01:00am 17.8 17.0 15.1 84 1.6 ESE 13 20 7 11 1009.5 1008.2 17.0
28/12:30am 18.1 17.3 15.2 83 1.7 E 13 20 7 11 1009.5 1008.2 17.0
28/12:00am 18.6 17.0 15.1 80 2.1 E 17 26 9 14 1009.4 1008.1 17.0
 
Date/Time
EDT
Temp
°C
App
Temp
°C
Dew
Point
Rel
Hum
%
Delta-T
°C
Wind Press
QNH
hPa
Press
MSL
hPa
Rain
since 9 am
mm
Dir
 
Spd
km/h
Gust
km/h
Spd
kts
Gust
kts
27/11:30pm 18.8 17.7 15.3 80 2.1 ESE 15 20 8 11 1009.8 1008.5 17.0
27/11:00pm 19.0 18.3 15.5 80 2.1 ESE 13 24 7 13 1009.6 1008.3 17.0
27/10:30pm 19.3 18.3 15.6 79 2.2 ESE 15 24 8 13 1009.3 1008.0 17.0
27/10:00pm 19.5 18.1 15.6 78 2.3 E 17 26 9 14 1009.0 1007.7 17.0
27/09:30pm 20.0 18.7 15.8 77 2.5 E 17 26 9 14 1008.8 1007.5 17.0
27/09:00pm 20.4 19.2 16.0 76 2.7 ESE 17 30 9 16 1008.7 1007.4 17.0
27/08:30pm 20.7 18.9 15.9 74 2.9 ESE 20 32 11 17 1008.3 1007.1 17.0
27/08:00pm 21.6 19.8 15.4 68 3.7 ESE 19 32 10 17 1007.9 1006.7 17.0
27/07:30pm 22.6 20.7 15.7 65 4.2 E 20 32 11 17 1007.5 1006.3 17.0
27/07:00pm 23.2 21.1 16.3 65 4.2 E 22 37 12 20 1006.6 1005.4 17.0
27/06:30pm 24.2 23.0 17.4 65 4.3 E 20 37 11 20 1006.8 1005.6 17.0
27/06:00pm 24.4 23.0 16.9 63 4.7 E 20 33 11 18 1006.6 1005.4 17.0
27/05:30pm 24.0 23.3 18.2 70 3.7 ENE 19 30 10 16 1006.3 1005.1 17.0
27/05:00pm 24.5 24.0 17.7 66 4.3 ENE 17 24 9 13 1006.7 1005.5 17.0
27/04:30pm 24.0 22.7 17.3 66 4.2 NE 20 32 11 17 1006.8 1005.6 17.0
27/04:00pm 23.8 23.0 18.4 72 3.4 ENE 20 35 11 19 1007.7 1006.5 17.0
27/03:30pm 24.6 24.9 19.7 74 3.2 E 17 26 9 14 1007.4 1006.2 17.0
27/03:00pm 23.8 24.8 19.5 77 2.8 ENE 13 20 7 11 1007.5 1006.3 16.8
27/02:30pm 22.8 24.0 19.0 79 2.4 E 11 20 6 11 1007.5 1006.3 16.8
27/02:00pm 21.0 22.5 19.8 93 0.8 N 11 15 6 8 1008.3 1007.1 16.8
27/01:30pm 20.6 19.5 17.4 82 2.0 WSW 19 35 10 19 1008.3 1007.1 14.6
27/01:00pm 24.5 25.5 17.7 66 4.3 ESE 9 13 5 7 1007.9 1006.7 9.6
27/12:30pm 24.4 24.7 16.9 63 4.7 ENE 11 17 6 9 1008.6 1007.3 9.6
27/12:00pm 23.6 23.8 17.6 69 3.8 ESE 13 20 7 11 1009.3 1008.0 9.4
27/11:30am 23.2 23.5 17.9 72 3.3 E 13 20 7 11 1009.4 1008.1 9.4
27/11:00am 21.7 24.1 20.0 90 1.1 ESE 7 9 4 5 1009.8 1008.5 9.4
27/10:30am 20.4 21.9 18.0 86 1.5 SSE 7 13 4 7 1009.8 1008.5 9.4
27/10:00am 24.1 23.7 17.1 65 4.4 E 15 22 8 12 1009.6 1008.3 0.0
27/09:30am 22.9 23.1 17.6 72 3.3 ESE 13 20 7 11 1009.7 1008.4 0.0
27/09:00am 20.7 21.1 17.3 81 2.1 E 11 15 6 8 1010.0 1008.7 0.2
27/08:30am 20.9 20.8 16.9 78 2.5 E 13 22 7 12 1009.9 1008.6 0.2
27/08:00am 21.5 21.5 16.2 72 3.2 E 11 17 6 9 1009.7 1008.4 0.0
27/07:30am 21.6 21.2 16.3 72 3.2 E 13 19 7 10 1009.3 1008.0 0.0
27/07:00am 20.6 21.0 16.2 76 2.7 ESE 9 17 5 9 1008.9 1007.6 0.0
27/06:30am 20.6 21.3 16.0 75 2.8 ESE 7 11 4 6 1009.0 1007.7 0.0
27/06:00am 21.1 21.0 16.1 73 3.0 E 11 19 6 10 1008.5 1007.2 0.0
27/05:30am 21.4 21.1 16.4 73 3.1 E 13 22 7 12 1008.3 1007.1 0.0
27/05:00am 21.6 20.9 16.3 72 3.2 E 15 26 8 14 1008.5 1007.2 0.0
27/04:30am 21.6 20.9 16.3 72 3.2 E 15 22 8 12 1008.5 1007.2 0.0
27/04:00am 21.6 20.4 16.1 71 3.3 E 17 28 9 15 1008.6 1007.3 0.0
27/03:30am 21.6 21.2 16.1 71 3.3 E 13 20 7 11 1008.7 1007.4 0.0
27/03:00am 21.4 21.1 16.4 73 3.1 E 13 22 7 12 1009.0 1007.7 0.0
27/02:30am 21.5 21.5 16.2 72 3.2 ESE 11 22 6 12 1009.3 1008.0 0.0
27/02:00am 21.8 20.7 16.3 71 3.4 E 17 30 9 16 1009.3 1008.0 0.0
27/01:30am 21.7 21.3 16.2 71 3.4 ESE 13 22 7 12 1009.6 1008.3 0.0
27/01:00am 21.9 21.1 16.2 70 3.5 ESE 15 28 8 15 1009.9 1008.6 0.0
27/12:30am 21.8 21.7 16.1 70 3.5 ESE 11 15 6 8 1010.1 1008.8 0.0
27/12:00am 22.4 22.0 16.2 68 3.8 E 13 20 7 11 1010.3 1009.1 0.0
 
Date/Time
EDT
Temp
°C
App
Temp
°C
Dew
Point
Rel
Hum
%
Delta-T
°C
Wind Press
QNH
hPa
Press
MSL
hPa
Rain
since 9 am
mm
Dir
 
Spd
km/h
Gust
km/h
Spd
kts
Gust
kts
26/11:30pm 23.0 22.3 16.3 66 4.1 E 15 22 8 12 1010.4 1009.2 0.0
26/11:00pm 23.5 22.8 16.5 65 4.3 E 15 22 8 12 1010.5 1009.3 0.0
26/10:30pm 24.0 22.6 16.5 63 4.6 E 19 32 10 17 1010.4 1009.2 0.0
26/10:00pm 25.0 23.9 16.4 59 5.3 E 17 26 9 14 1010.3 1009.1 0.0
26/09:30pm 26.3 26.3 16.3 54 6.2 ESE 11 20 6 11 1009.7 1008.4 0.0
26/09:00pm 25.9 22.5 1.9 21 11.7 SSE 9 13 5 7 1009.4 1008.1 0.0
26/08:30pm 27.7 23.4 1.2 18 12.8 SSW 13 17 7 9 1008.7 1007.4 0.0
26/08:00pm 28.9 24.3 1.4 17 13.5 SSW 15 22 8 12 1008.2 1007.0 0.0
26/07:30pm 30.1 24.7 1.5 16 14.2 SSW 19 24 10 13 1007.7 1006.5 0.0
26/07:00pm 30.8 25.5 2.1 16 14.5 SSW 19 28 10 15 1007.5 1006.3 0.0
26/06:30pm 31.3 25.5 2.5 16 14.6 SW 22 33 12 18 1007.3 1006.1 0.0
26/06:00pm 31.9 26.6 3.0 16 14.9 SSW 20 33 11 18 1007.3 1006.1 0.0
26/05:30pm 31.6 25.6 3.6 17 14.5 SSW 24 39 13 21 1007.1 1005.9 0.0
26/05:00pm 33.1 27.2 3.9 16 15.4 SW 24 35 13 19 1007.3 1006.1 0.0
26/04:30pm 32.4 26.7 5.0 18 14.6 SW 24 35 13 19 1007.6 1006.4 0.0
26/04:00pm 32.7 27.1 5.3 18 14.7 SSW 24 35 13 19 1007.8 1006.6 0.0
26/03:30pm 32.7 28.0 6.1 19 14.4 SSW 20 35 11 19 1007.9 1006.7 0.0
26/03:00pm 32.9 27.7 5.5 18 14.8 SW 22 32 12 17 1008.2 1007.0 0.0
26/02:50pm 32.2 26.7 5.7 19 14.3 SW 24 52 13 28 1008.3 1007.1 0.0
26/02:30pm 32.6 27.9 6.0 19 14.4 SSW 20 30 11 16 1008.7 1007.4 0.0
26/02:00pm 32.5 27.9 6.7 20 14.2 SW 20 26 11 14 1009.0 1007.7 0.0
26/01:30pm 32.1 27.2 7.0 21 13.8 SW 22 33 12 18 1009.2 1007.9 0.0
26/01:00pm 30.7 27.5 8.4 25 12.5 SSW 15 26 8 14 1009.5 1008.2 0.0
26/12:30pm 30.1 27.5 10.6 30 11.2 S 15 24 8 13 1009.7 1008.4 0.0
26/12:00pm 29.5 26.3 10.1 30 11.1 SSW 17 32 9 17 1010.1 1008.8 0.0
26/11:30am 28.2 25.9 11.7 36 9.6 S 15 20 8 11 1010.5 1009.3 0.0
26/11:00am 28.3 26.1 12.2 37 9.5 S 15 26 8 14 1010.6 1009.4 0.0
26/10:30am 26.5 23.4 10.2 36 9.2 S 17 24 9 13 1010.7 1009.5 0.0
26/10:00am 25.5 21.0 6.2 29 10.1 S 19 28 10 15 1010.5 1009.3 0.0
26/09:30am 24.6 20.0 5.4 29 9.8 S 19 28 10 15 1010.8 1009.6 0.0
26/09:00am 23.5 19.1 4.9 30 9.4 S 17 26 9 14 1011.0 1009.8 0.0
26/08:30am 21.6 17.4 3.8 31 8.7 S 15 24 8 13 1011.1 1009.9 0.0
26/08:00am 20.4 17.0 4.0 34 8.0 SSE 11 17 6 9 1011.0 1009.8 0.0
26/07:30am 18.9 14.3 3.5 36 7.3 S 17 28 9 15 1010.5 1009.3 0.0
26/07:00am 18.2 14.0 3.7 38 6.9 SSE 15 22 8 12 1010.2 1008.9 0.0
26/06:30am 17.9 13.7 3.8 39 6.7 S 15 22 8 12 1009.9 1008.6 0.0
26/06:00am 17.9 14.1 4.1 40 6.6 S 13 20 7 11 1009.5 1008.2 0.0
26/05:30am 18.2 14.5 4.4 40 6.6 S 13 20 7 11 1009.5 1008.2 0.0
26/05:00am 18.9 15.2 4.3 38 7.1 S 13 20 7 11 1009.1 1007.8 0.0
26/04:30am 19.4 15.3 4.3 37 7.3 S 15 22 8 12 1009.0 1007.7 0.0
26/04:00am 20.0 15.2 4.5 36 7.6 S 19 28 10 15 1008.9 1007.6 0.0
26/03:30am 20.4 15.9 4.4 35 7.8 S 17 24 9 13 1008.8 1007.5 0.0
26/03:00am 20.5 16.6 5.3 37 7.6 S 15 24 8 13 1008.9 1007.6 0.0
26/02:30am 20.9 16.8 6.1 38 7.5 S 17 24 9 13 1008.9 1007.6 0.0
26/02:00am 21.3 18.2 7.2 40 7.3 S 13 20 7 11 1009.1 1007.8 0.0
26/01:30am 22.1 18.2 7.1 38 7.8 S 17 26 9 14 1009.2 1007.9 0.0
26/01:00am 22.3 19.1 8.4 41 7.4 S 15 22 8 12 1009.2 1007.9 0.0
26/12:30am 22.6 20.0 9.4 43 7.2 S 13 19 7 10 1009.1 1007.8 0.0
26/12:00am 23.1 20.2 9.8 43 7.3 SSW 15 20 8 11 1009.0 1007.7 0.0
 
Date/Time
EDT
Temp
°C
App
Temp
°C
Dew
Point
Rel
Hum
%
Delta-T
°C
Wind Press
QNH
hPa
Press
MSL
hPa
Rain
since 9 am
mm
Dir
 
Spd
km/h
Gust
km/h
Spd
kts
Gust
kts
25/11:30pm 23.8 20.9 9.8 41 7.7 SSW 15 20 8 11 1008.9 1007.6 0.0
25/11:00pm 24.3 21.9 10.2 41 7.9 SSW 13 17 7 9 1008.7 1007.4 0.0

Other Formats:

Comma delimited format used in spreadsheet applications
http://www.bom.gov.au/fwo/IDN60801/IDN60801.95710.axf

JavaScript Object Notation format (JSON) in row-major order
http://www.bom.gov.au/fwo/IDN60801/IDN60801.95710.json